Time;durP1;ratioP1;P1;durP2;ratioP2;P2;SDS_P1;SDS_P2;PMS_P1;PMS_P2;Temp;Humidity;BMP_temperature;BMP_pressure;BME280_temperature;BME280_humidity;BME280_pressure;Samples;Min_cycle;Max_cycle;Signal;HPM_P1;HPM_P2
2021/07/28 00:00:54;;;;;;;27.55;12.90;;;;;;;;;;5133945;28;20032;-71
2021/07/28 00:03:20;;;;;;;26.02;13.10;;;;;;;;;;5134155;28;20399;-70
2021/07/28 00:05:47;;;;;;;25.17;12.48;;;;;;;;;;5133906;28;20030;-70
2021/07/28 00:08:13;;;;;;;27.52;13.80;;;;;;;;;;5133909;28;20467;-70
2021/07/28 00:10:39;;;;;;;32.90;13.18;;;;;;;;;;5115395;28;20027;-70
2021/07/28 00:13:05;;;;;;;22.00;12.43;;;;;;;;;;5115423;28;20034;-70
2021/07/28 00:15:32;;;;;;;33.30;13.60;;;;;;;;;;5133521;28;20059;-70
2021/07/28 00:18:02;;;;;;;35.47;12.95;;;;;;;;;;5133568;28;20023;-71
2021/07/28 00:23:15;;;;;;;29.45;14.10;;;;;;;;;;5133503;28;20039;-70
2021/07/28 00:28:45;;;;;;;33.28;13.05;;;;;;;;;;5134059;28;20442;-70
2021/07/28 00:31:11;;;;;;;28.77;14.15;;;;;;;;;;5133709;28;20030;-68
2021/07/28 00:33:37;;;;;;;29.98;15.00;;;;;;;;;;5133647;28;20110;-69
2021/07/28 00:36:04;;;;;;;23.17;13.15;;;;;;;;;;5115134;28;20471;-68
2021/07/28 00:38:30;;;;;;;27.23;14.30;;;;;;;;;;5117309;27;20027;-68
2021/07/28 00:40:57;;;;;;;25.67;13.73;;;;;;;;;;5137451;27;20081;-70
2021/07/28 00:43:29;;;;;;;23.52;13.52;;;;;;;;;;5137495;27;20023;-67
2021/07/28 00:45:55;;;;;;;33.50;13.90;;;;;;;;;;5119119;27;20451;-72
2021/07/28 00:48:22;;;;;;;25.52;13.77;;;;;;;;;;5137275;27;20376;-69
2021/07/28 00:50:48;;;;;;;41.63;14.73;;;;;;;;;;5118861;27;20027;-69
2021/07/28 00:53:20;;;;;;;29.75;14.57;;;;;;;;;;5137263;27;20023;-72
2021/07/28 00:55:47;;;;;;;29.73;15.40;;;;;;;;;;5137316;27;20019;-70
2021/07/28 00:58:14;;;;;;;25.25;13.57;;;;;;;;;;5137253;27;20023;-69
2021/07/28 01:00:41;;;;;;;29.00;14.93;;;;;;;;;;5137046;27;20027;-70
2021/07/28 01:03:07;;;;;;;30.23;14.57;;;;;;;;;;5137092;27;20027;-71
2021/07/28 01:05:33;;;;;;;30.17;14.02;;;;;;;;;;5118604;27;20452;-69
2021/07/28 01:08:00;;;;;;;36.13;15.07;;;;;;;;;;5137054;27;20035;-71
2021/07/28 01:10:26;;;;;;;33.20;15.00;;;;;;;;;;5136933;27;20035;-70
2021/07/28 01:12:54;;;;;;;26.90;14.57;;;;;;;;;;5136950;27;20046;-70
2021/07/28 01:18:04;;;;;;;26.52;14.25;;;;;;;;;;5136840;27;20027;-70
2021/07/28 01:20:35;;;;;;;32.92;16.02;;;;;;;;;;5136705;27;20427;-68
2021/07/28 01:23:03;;;;;;;30.92;14.63;;;;;;;;;;5136716;27;20061;-72
2021/07/28 01:25:30;;;;;;;27.17;15.15;;;;;;;;;;5118233;27;20055;-72
2021/07/28 01:27:57;;;;;;;24.38;13.68;;;;;;;;;;5136724;27;20030;-71
2021/07/28 01:30:23;;;;;;;32.25;14.68;;;;;;;;;;5136591;27;20027;-70
2021/07/28 01:32:51;;;;;;;32.38;15.32;;;;;;;;;;5136793;27;20128;-70
2021/07/28 01:35:19;;;;;;;41.10;16.20;;;;;;;;;;5136765;27;20119;-70
2021/07/28 01:37:46;;;;;;;35.08;16.15;;;;;;;;;;5117981;27;20481;-73
2021/07/28 01:40:13;;;;;;;30.42;15.70;;;;;;;;;;5136592;27;20031;-69
2021/07/28 01:42:46;;;;;;;37.33;15.70;;;;;;;;;;5136058;27;20054;-72
2021/07/28 01:45:13;;;;;;;35.20;15.50;;;;;;;;;;5117831;27;20110;-72
2021/07/28 01:47:42;;;;;;;27.45;15.20;;;;;;;;;;5136066;27;20104;-72
2021/07/28 01:50:09;;;;;;;36.10;16.42;;;;;;;;;;5135790;27;20037;-69
2021/07/28 01:52:37;;;;;;;32.83;15.85;;;;;;;;;;5136158;27;20030;-70
2021/07/28 01:55:03;;;;;;;34.25;15.93;;;;;;;;;;5136128;27;20026;-71
2021/07/28 01:57:30;;;;;;;31.73;15.95;;;;;;;;;;5135864;27;20407;-69
2021/07/28 02:00:02;;;;;;;27.50;14.48;;;;;;;;;;5117493;27;20499;-71
2021/07/28 02:02:31;;;;;;;26.90;14.77;;;;;;;;;;5136062;27;20043;-72
2021/07/28 02:05:04;;;;;;;28.48;14.73;;;;;;;;;;5117434;27;20048;-72
2021/07/28 02:07:31;;;;;;;35.30;14.55;;;;;;;;;;5117459;27;20060;-72
2021/07/28 02:09:57;;;;;;;31.48;15.32;;;;;;;;;;5135840;27;20155;-72
2021/07/28 02:12:23;;;;;;;34.42;15.60;;;;;;;;;;5117288;27;20070;-72
2021/07/28 02:14:50;;;;;;;26.70;13.32;;;;;;;;;;5117258;27;20030;-69
2021/07/28 02:17:16;;;;;;;31.98;14.88;;;;;;;;;;5135664;27;20024;-70
2021/07/28 02:19:42;;;;;;;33.63;14.52;;;;;;;;;;5117077;27;20031;-69
2021/07/28 02:22:10;;;;;;;33.72;16.27;;;;;;;;;;5135529;27;20102;-71
2021/07/28 02:24:37;;;;;;;34.28;15.85;;;;;;;;;;5135545;27;20042;-69
2021/07/28 02:27:03;;;;;;;37.42;15.65;;;;;;;;;;5116992;27;20100;-69
2021/07/28 02:29:30;;;;;;;32.67;15.68;;;;;;;;;;5135444;27;20031;-71
2021/07/28 02:31:57;;;;;;;34.65;15.38;;;;;;;;;;5135459;27;20023;-71
2021/07/28 02:34:23;;;;;;;30.33;15.25;;;;;;;;;;5135329;27;20106;-69
2021/07/28 02:36:49;;;;;;;30.05;15.10;;;;;;;;;;5135230;27;20030;-68
2021/07/28 02:39:15;;;;;;;25.77;15.45;;;;;;;;;;5135206;27;20105;-70
2021/07/28 02:41:42;;;;;;;38.22;15.85;;;;;;;;;;5135173;27;20443;-68
2021/07/28 02:44:08;;;;;;;30.35;15.90;;;;;;;;;;5116642;27;20076;-71
2021/07/28 02:46:34;;;;;;;35.20;16.48;;;;;;;;;;5135070;27;20016;-69
2021/07/28 02:49:00;;;;;;;29.33;15.55;;;;;;;;;;5135019;27;20046;-69
2021/07/28 02:51:26;;;;;;;31.33;14.30;;;;;;;;;;5135268;27;20110;-69
2021/07/28 02:53:53;;;;;;;31.48;15.23;;;;;;;;;;5134981;27;20030;-68
2021/07/28 02:56:19;;;;;;;34.28;15.00;;;;;;;;;;5135151;27;20024;-67
2021/07/28 02:58:45;;;;;;;26.13;15.02;;;;;;;;;;5134937;27;20409;-70
2021/07/28 03:01:11;;;;;;;35.60;14.73;;;;;;;;;;5133952;27;20054;-68
2021/07/28 03:03:38;;;;;;;28.13;16.98;;;;;;;;;;5135080;27;20102;-71
2021/07/28 03:06:04;;;;;;;31.58;16.45;;;;;;;;;;5134677;27;20106;-70
2021/07/28 03:08:30;;;;;;;28.92;16.33;;;;;;;;;;5116263;27;20311;-69
2021/07/28 03:10:56;;;;;;;35.13;15.98;;;;;;;;;;5134334;27;20543;-69
2021/07/28 03:13:22;;;;;;;32.67;16.50;;;;;;;;;;5134577;27;20023;-68
2021/07/28 03:15:50;;;;;;;35.33;16.90;;;;;;;;;;5116105;27;20037;-71
2021/07/28 03:18:16;;;;;;;47.95;17.17;;;;;;;;;;5134582;27;20018;-68
2021/07/28 03:20:46;;;;;;;34.47;16.00;;;;;;;;;;5134080;27;20427;-71
2021/07/28 03:23:12;;;;;;;38.08;16.30;;;;;;;;;;5134417;27;20020;-71
2021/07/28 03:25:38;;;;;;;34.03;15.18;;;;;;;;;;5134359;27;20122;-71
2021/07/28 03:28:05;;;;;;;33.45;15.35;;;;;;;;;;5134678;27;20101;-71
2021/07/28 03:30:31;;;;;;;39.88;14.82;;;;;;;;;;5134324;27;20038;-71
2021/07/28 03:32:57;;;;;;;32.30;16.33;;;;;;;;;;5134324;27;20094;-71
2021/07/28 03:35:23;;;;;;;36.50;15.00;;;;;;;;;;5134280;27;20044;-70
2021/07/28 03:37:50;;;;;;;28.10;15.73;;;;;;;;;;5133949;27;20025;-70
2021/07/28 03:40:16;;;;;;;32.58;14.38;;;;;;;;;;5134231;27;20063;-69
2021/07/28 03:42:44;;;;;;;35.38;14.80;;;;;;;;;;5134182;27;20027;-72
2021/07/28 03:45:10;;;;;;;34.22;14.95;;;;;;;;;;5115757;28;20026;-70
2021/07/28 03:47:36;;;;;;;28.20;14.45;;;;;;;;;;5134201;27;20071;-69
2021/07/28 03:50:03;;;;;;;27.88;14.07;;;;;;;;;;5115689;28;20023;-71
2021/07/28 03:52:29;;;;;;;25.70;13.98;;;;;;;;;;5133778;27;20110;-69
2021/07/28 03:54:55;;;;;;;39.08;16.25;;;;;;;;;;5115492;28;20530;-69
2021/07/28 03:57:21;;;;;;;40.35;15.30;;;;;;;;;;5133726;28;20098;-70
2021/07/28 03:59:47;;;;;;;41.30;16.45;;;;;;;;;;5134205;28;20106;-70
2021/07/28 04:02:14;;;;;;;33.78;16.58;;;;;;;;;;5133906;28;20132;-68
2021/07/28 04:04:40;;;;;;;37.35;15.60;;;;;;;;;;5133941;28;20059;-71
2021/07/28 04:07:07;;;;;;;31.13;15.38;;;;;;;;;;5133905;28;20019;-70
2021/07/28 04:09:33;;;;;;;34.60;14.98;;;;;;;;;;5133970;28;20053;-72
2021/07/28 04:11:59;;;;;;;31.88;17.80;;;;;;;;;;5135290;27;20115;-72
2021/07/28 04:14:26;;;;;;;39.33;19.63;;;;;;;;;;5138338;27;20098;-70
2021/07/28 04:16:52;;;;;;;35.00;20.25;;;;;;;;;;5119493;27;20023;-70
2021/07/28 04:19:18;;;;;;;45.90;22.52;;;;;;;;;;5119535;27;20497;-70
2021/07/28 04:21:44;;;;;;;41.97;21.55;;;;;;;;;;5137902;27;20110;-71
2021/07/28 04:24:10;;;;;;;37.60;19.35;;;;;;;;;;5138130;27;20069;-71
2021/07/28 04:26:37;;;;;;;33.88;18.17;;;;;;;;;;5119372;27;20027;-69
2021/07/28 04:29:03;;;;;;;33.58;15.57;;;;;;;;;;5137782;27;20483;-69
2021/07/28 04:31:29;;;;;;;38.75;16.95;;;;;;;;;;5137719;27;20019;-69
2021/07/28 04:33:55;;;;;;;31.00;14.55;;;;;;;;;;5137613;27;20106;-69
2021/07/28 04:36:21;;;;;;;31.85;15.95;;;;;;;;;;5137861;27;20144;-72
2021/07/28 04:38:48;;;;;;;33.70;15.07;;;;;;;;;;5137382;27;20156;-68
2021/07/28 04:41:14;;;;;;;38.58;16.33;;;;;;;;;;5137513;27;20035;-69
2021/07/28 04:43:41;;;;;;;35.58;16.05;;;;;;;;;;5119030;27;20056;-68
2021/07/28 04:46:07;;;;;;;34.90;16.48;;;;;;;;;;5118915;27;20114;-70
2021/07/28 04:48:33;;;;;;;35.72;16.92;;;;;;;;;;5137039;27;20093;-69
2021/07/28 04:50:59;;;;;;;34.50;17.92;;;;;;;;;;5137304;27;20054;-70
2021/07/28 04:53:28;;;;;;;28.40;15.38;;;;;;;;;;5137082;27;20506;-74
2021/07/28 04:55:55;;;;;;;40.42;16.85;;;;;;;;;;5137272;27;20038;-73
2021/07/28 04:58:21;;;;;;;32.92;14.63;;;;;;;;;;5137240;27;20023;-72
2021/07/28 05:00:51;;;;;;;39.45;15.30;;;;;;;;;;5118452;27;20066;-73
2021/07/28 05:03:18;;;;;;;35.30;14.70;;;;;;;;;;5137136;27;20126;-69
2021/07/28 05:05:44;;;;;;;31.35;14.70;;;;;;;;;;5137093;27;20106;-69
2021/07/28 05:08:11;;;;;;;34.72;15.68;;;;;;;;;;5118565;27;20065;-70
2021/07/28 05:10:37;;;;;;;30.55;15.00;;;;;;;;;;5136652;27;20383;-72
2021/07/28 05:13:04;;;;;;;32.95;14.80;;;;;;;;;;5136941;27;20575;-72
2021/07/28 05:15:30;;;;;;;34.00;15.55;;;;;;;;;;5118445;27;20516;-69
2021/07/28 05:17:57;;;;;;;26.63;15.00;;;;;;;;;;5118384;27;20023;-70
2021/07/28 05:20:23;;;;;;;32.38;14.63;;;;;;;;;;5136830;27;20023;-70
2021/07/28 05:22:51;;;;;;;32.42;13.65;;;;;;;;;;5136457;27;20095;-72
2021/07/28 05:25:17;;;;;;;32.50;13.55;;;;;;;;;;5136193;27;20015;-68
2021/07/28 05:27:44;;;;;;;41.60;14.27;;;;;;;;;;5136693;27;20510;-69
2021/07/28 05:30:10;;;;;;;28.27;14.48;;;;;;;;;;5118126;27;20122;-68
2021/07/28 05:32:36;;;;;;;24.80;13.93;;;;;;;;;;5136602;27;20348;-70
2021/07/28 05:35:03;;;;;;;31.00;14.32;;;;;;;;;;5136538;27;20141;-70
2021/07/28 05:37:29;;;;;;;27.05;13.70;;;;;;;;;;5136462;27;20141;-70
2021/07/28 05:39:56;;;;;;;27.58;14.65;;;;;;;;;;5117986;27;20463;-70
2021/07/28 05:42:22;;;;;;;26.02;13.32;;;;;;;;;;5136322;27;20031;-68
2021/07/28 05:44:48;;;;;;;32.47;13.80;;;;;;;;;;5136280;27;20157;-67
2021/07/28 05:47:15;;;;;;;31.63;12.70;;;;;;;;;;5117508;27;20023;-71
2021/07/28 05:49:41;;;;;;;34.65;13.30;;;;;;;;;;5135925;27;20502;-69
2021/07/28 05:52:07;;;;;;;31.10;13.10;;;;;;;;;;5130783;27;20428;-68
2021/07/28 05:54:42;;;;;;;28.30;13.02;;;;;;;;;;5136167;27;20042;-70
2021/07/28 05:57:08;;;;;;;38.38;12.88;;;;;;;;;;5117587;27;20015;-69
2021/07/28 05:59:34;;;;;;;29.50;13.13;;;;;;;;;;5117627;27;20348;-71
2021/07/28 06:02:00;;;;;;;30.75;13.13;;;;;;;;;;5136000;27;20106;-69
2021/07/28 06:04:27;;;;;;;26.63;11.40;;;;;;;;;;5135819;27;20023;-69
2021/07/28 06:06:53;;;;;;;29.10;12.43;;;;;;;;;;5135508;27;20031;-69
2021/07/28 06:09:19;;;;;;;23.13;11.55;;;;;;;;;;5135545;27;20034;-70
2021/07/28 06:11:46;;;;;;;26.85;12.82;;;;;;;;;;5135792;27;20098;-70
2021/07/28 06:14:12;;;;;;;30.88;12.77;;;;;;;;;;5135700;27;20027;-69
2021/07/28 06:16:39;;;;;;;34.85;12.85;;;;;;;;;;5135691;27;20099;-70
2021/07/28 06:19:05;;;;;;;27.15;11.65;;;;;;;;;;5135619;27;20019;-69
2021/07/28 06:21:31;;;;;;;28.45;11.68;;;;;;;;;;5116863;27;20030;-68
2021/07/28 06:24:00;;;;;;;24.33;12.32;;;;;;;;;;5135791;27;20106;-68
2021/07/28 06:26:26;;;;;;;36.30;12.40;;;;;;;;;;5116976;27;20375;-69
2021/07/28 06:28:53;;;;;;;28.70;11.80;;;;;;;;;;5135418;27;20023;-74
2021/07/28 06:31:19;;;;;;;27.95;13.32;;;;;;;;;;5116943;27;20413;-69
2021/07/28 06:33:45;;;;;;;38.30;13.70;;;;;;;;;;5135384;27;20060;-71
2021/07/28 06:36:11;;;;;;;35.92;11.65;;;;;;;;;;5135225;27;20522;-71
2021/07/28 06:38:37;;;;;;;23.42;11.38;;;;;;;;;;5116635;27;20029;-72
2021/07/28 06:41:06;;;;;;;28.60;11.57;;;;;;;;;;5116754;27;20023;-71
2021/07/28 06:43:32;;;;;;;45.97;16.27;;;;;;;;;;5135133;27;20054;-72
2021/07/28 06:45:59;;;;;;;29.58;11.70;;;;;;;;;;5135083;27;20055;-71
2021/07/28 06:48:25;;;;;;;25.95;11.85;;;;;;;;;;5116203;27;20100;-70
2021/07/28 06:50:52;;;;;;;24.80;10.82;;;;;;;;;;5134936;27;20027;-71
2021/07/28 06:53:18;;;;;;;24.15;10.95;;;;;;;;;;5116487;27;20375;-72
2021/07/28 06:55:44;;;;;;;23.80;11.77;;;;;;;;;;5134884;27;20027;-71
2021/07/28 06:58:10;;;;;;;24.52;11.05;;;;;;;;;;5134920;27;20051;-71
2021/07/28 07:00:37;;;;;;;29.63;12.20;;;;;;;;;;5134820;27;20062;-71
2021/07/28 07:03:03;;;;;;;25.13;10.88;;;;;;;;;;5134804;27;20098;-70
2021/07/28 07:05:29;;;;;;;32.70;11.93;;;;;;;;;;5134730;27;20069;-71
2021/07/28 07:07:55;;;;;;;33.63;12.93;;;;;;;;;;5134926;27;20046;-69
2021/07/28 07:10:22;;;;;;;29.60;10.98;;;;;;;;;;5134353;27;20044;-69
2021/07/28 07:12:48;;;;;;;32.65;11.43;;;;;;;;;;5134331;27;20015;-71
2021/07/28 07:15:15;;;;;;;28.70;11.02;;;;;;;;;;5134569;27;20094;-71
2021/07/28 07:17:41;;;;;;;29.88;11.27;;;;;;;;;;5134327;27;20102;-71
2021/07/28 07:20:08;;;;;;;28.35;10.73;;;;;;;;;;5116015;27;20114;-71
2021/07/28 07:22:34;;;;;;;37.95;11.93;;;;;;;;;;5134015;27;20168;-71
2021/07/28 07:25:00;;;;;;;30.88;11.73;;;;;;;;;;5134429;27;20033;-72
2021/07/28 07:27:27;;;;;;;41.10;11.10;;;;;;;;;;5115896;27;20027;-71
2021/07/28 07:29:54;;;;;;;33.53;10.48;;;;;;;;;;5134456;27;20073;-71
2021/07/28 07:32:21;;;;;;;36.58;10.75;;;;;;;;;;5134549;27;20015;-71
2021/07/28 07:34:48;;;;;;;29.75;9.85;;;;;;;;;;5134286;27;20076;-71
2021/07/28 07:37:14;;;;;;;35.53;11.98;;;;;;;;;;5115608;28;20111;-70
2021/07/28 07:39:40;;;;;;;28.63;10.75;;;;;;;;;;5134177;27;20160;-70
2021/07/28 07:42:06;;;;;;;28.42;10.55;;;;;;;;;;5134549;27;20467;-73
2021/07/28 07:44:32;;;;;;;29.20;11.13;;;;;;;;;;5134091;27;20098;-70
2021/07/28 07:46:59;;;;;;;30.42;10.20;;;;;;;;;;5133720;27;20535;-71
2021/07/28 07:49:25;;;;;;;32.17;10.80;;;;;;;;;;5133118;27;20126;-70
2021/07/28 07:51:51;;;;;;;29.02;10.15;;;;;;;;;;5132595;27;20141;-70
2021/07/28 07:54:17;;;;;;;36.47;11.23;;;;;;;;;;5133446;28;20027;-71
2021/07/28 07:56:44;;;;;;;28.40;11.45;;;;;;;;;;5115764;28;20437;-70
2021/07/28 07:59:10;;;;;;;38.17;11.40;;;;;;;;;;5115409;28;20106;-71
2021/07/28 08:01:38;;;;;;;30.55;10.60;;;;;;;;;;5133867;28;20110;-70
2021/07/28 08:04:04;;;;;;;26.20;10.85;;;;;;;;;;5133903;28;20041;-71
2021/07/28 08:06:32;;;;;;;35.30;10.77;;;;;;;;;;5133888;28;20118;-71
2021/07/28 08:08:59;;;;;;;24.90;10.38;;;;;;;;;;5133760;28;20019;-72
2021/07/28 08:11:25;;;;;;;28.65;10.40;;;;;;;;;;5115014;28;20033;-71
2021/07/28 08:13:51;;;;;;;28.77;11.50;;;;;;;;;;5133791;28;20534;-71
2021/07/28 08:16:18;;;;;;;32.53;10.45;;;;;;;;;;5133739;28;20058;-70
2021/07/28 08:18:45;;;;;;;37.42;11.05;;;;;;;;;;5133780;28;20031;-73
2021/07/28 08:21:11;;;;;;;23.30;10.55;;;;;;;;;;5131365;28;20035;-72
2021/07/28 08:23:38;;;;;;;27.58;9.90;;;;;;;;;;5133517;28;20136;-72
2021/07/28 08:26:03;;;;;;;26.58;10.10;;;31.30;99.90;;;;;;5133792;28;20076;-72
2021/07/28 08:28:29;;;;;;;23.75;10.35;;;31.70;99.90;;;;;;5133583;28;20107;-72
2021/07/28 08:30:55;;;;;;;26.67;10.30;;;31.90;93.60;;;;;;5133494;28;20038;-72
2021/07/28 08:33:23;;;;;;;26.48;10.07;;;32.10;90.70;;;;;;5114748;28;20407;-71
2021/07/28 08:35:49;;;;;;;22.20;10.18;;;32.20;86.70;;;;;;5133652;28;20477;-72
2021/07/28 08:38:15;;;;;;;22.90;9.82;;;32.40;73.30;;;;;;5114962;28;20107;-72
2021/07/28 08:40:46;;;;;;;27.50;10.02;;;32.70;70.70;;;;;;5133588;28;20042;-72
2021/07/28 08:43:12;;;;;;;35.47;11.00;;;33.00;70.60;;;;;;5133510;28;20055;-72
2021/07/28 08:45:38;;;;;;;24.73;10.20;;;33.30;71.00;;;;;;5132907;28;20459;-72
2021/07/28 08:48:04;;;;;;;28.92;9.30;;;33.30;71.30;;;;;;5114776;28;20043;-72
2021/07/28 08:50:30;;;;;;;33.03;9.95;;;33.40;71.90;;;;;;5133065;28;20028;-72
2021/07/28 08:52:59;;;;;;;26.80;9.45;;;33.30;72.10;;;;;;5133005;28;20084;-72
2021/07/28 08:55:26;;;;;;;27.27;10.40;;;33.30;70.40;;;;;;5133427;28;20478;-72
2021/07/28 08:57:52;;;;;;;25.10;9.38;;;33.30;71.40;;;;;;5133363;27;20023;-72
2021/07/28 09:00:18;;;;;;;29.05;8.95;;;33.40;71.30;;;;;;5136383;27;20037;-72
2021/07/28 09:02:44;;;;;;;27.02;10.20;;;33.50;71.00;;;;;;5117776;27;20072;-71
2021/07/28 09:05:10;;;;;;;24.40;9.10;;;33.60;70.10;;;;;;5136441;27;20467;-71
2021/07/28 09:07:38;;;;;;;22.00;8.93;;;34.00;70.70;;;;;;5136601;27;20096;-72
2021/07/28 09:10:05;;;;;;;21.92;8.60;;;34.00;69.40;;;;;;5118485;27;20035;-73
2021/07/28 09:12:35;;;;;;;31.55;8.90;;;33.90;68.90;;;;;;5118315;27;20035;-71
2021/07/28 09:15:04;;;;;;;25.00;9.52;;;33.70;70.20;;;;;;5136374;27;20432;-72
2021/07/28 09:17:34;;;;;;;17.65;8.65;;;33.50;71.60;;;;;;5136200;27;20655;-72
2021/07/28 09:20:01;;;;;;;21.38;8.57;;;33.20;67.60;;;;;;5136404;27;20035;-72
2021/07/28 09:22:40;;;;;;;26.45;9.35;;;32.90;68.60;;;;;;5117704;27;20028;-73
2021/07/28 09:25:20;;;;;;;22.63;10.38;;;32.50;72.20;;;;;;5134677;27;20023;-72
2021/07/28 09:27:49;;;;;;;21.30;9.85;;;32.40;72.90;;;;;;5116883;27;20055;-73
2021/07/28 09:30:18;;;;;;;18.85;8.30;;;32.80;71.90;;;;;;5116826;27;20031;-71
2021/07/28 09:33:00;;;;;;;24.40;9.25;;;33.10;69.60;;;;;;5136007;27;20035;-72
2021/07/28 09:35:51;;;;;;;23.55;8.07;;;33.50;66.00;;;;;;5136342;27;20023;-72
2021/07/28 09:38:43;;;;;;;20.37;7.53;;;33.80;62.10;;;;;;5136365;27;20062;-73
2021/07/28 09:41:17;;;;;;;20.67;7.78;;;34.10;65.90;;;;;;5136375;27;20027;-72
2021/07/28 09:43:53;;;;;;;22.55;8.63;;;34.30;61.90;;;;;;5136475;27;20076;-72
2021/07/28 09:46:23;;;;;;;24.95;9.55;;;34.60;64.00;;;;;;5136217;27;20023;-72
2021/07/28 09:48:49;;;;;;;18.60;7.67;;;34.70;64.50;;;;;;5113950;28;20079;-71
2021/07/28 09:51:33;;;;;;;23.15;8.57;;;34.90;62.60;;;;;;5115558;28;20479;-72
2021/07/28 09:54:00;;;;;;;19.70;8.38;;;;;;;;;;5115697;28;20106;-70
2021/07/28 09:56:39;;;;;;;24.65;9.40;;;;;;;;;;5115844;28;20032;-70
2021/07/28 09:59:05;;;;;;;23.80;8.25;;;;;;;;;;5114202;28;20027;-71
2021/07/28 10:01:33;;;;;;;22.77;8.30;;;;;;;;;;5114180;28;20031;-70
2021/07/28 10:04:00;;;;;;;21.80;8.27;;;35.00;66.30;;;;;;5115460;28;20020;-72
2021/07/28 10:06:33;;;;;;;20.85;7.88;;;35.90;59.50;;;;;;5115366;28;20031;-71
2021/07/28 10:09:00;;;;;;;25.40;7.88;;;35.90;58.70;;;;;;5115356;28;20026;-70
2021/07/28 10:11:28;;;;;;;23.92;8.27;;;36.10;60.70;;;;;;5113768;28;20074;-70
2021/07/28 10:13:54;;;;;;;25.45;8.15;;;36.20;60.20;;;;;;5115200;28;20107;-71
2021/07/28 10:16:21;;;;;;;19.17;8.23;;;36.50;57.90;;;;;;5115270;28;20035;-70
2021/07/28 10:18:49;;;;;;;19.55;7.82;;;36.70;59.20;;;;;;5115221;28;20059;-70
2021/07/28 10:21:16;;;;;;;22.30;7.60;;;36.70;58.10;;;;;;5113938;28;20481;-71
2021/07/28 10:23:45;;;;;;;22.88;7.78;;;36.80;60.20;;;;;;5109495;28;20020;-71
2021/07/28 10:26:13;;;;;;;19.52;7.82;;;37.00;59.80;;;;;;5094451;28;20024;-71
2021/07/28 10:28:47;;;;;;;17.33;7.53;;;37.20;58.60;;;;;;5094630;28;20384;-70
2021/07/28 10:31:21;;;;;;;14.50;7.68;;;37.20;56.50;;;;;;5093191;28;20093;-70
2021/07/28 10:33:51;;;;;;;19.85;8.25;;;37.50;58.20;;;;;;5093191;28;20062;-71
2021/07/28 10:36:19;;;;;;;19.60;7.70;;;37.60;55.90;;;;;;5094612;28;20024;-72
2021/07/28 10:38:56;;;;;;;20.45;7.35;;;38.00;58.40;;;;;;5094608;28;20491;-71
2021/07/28 10:41:41;;;;;;;14.50;6.88;;;38.30;54.90;;;;;;5093188;28;20032;-71
2021/07/28 10:44:11;;;;;;;22.17;7.38;;;38.80;56.90;;;;;;5094805;28;20020;-71
2021/07/28 10:47:02;;;;;;;23.50;8.98;;;39.30;54.70;;;;;;5094594;28;20023;-72
2021/07/28 10:49:34;;;;;;;24.88;9.82;;;40.00;55.70;;;;;;5110056;27;20051;-72
2021/07/28 10:52:01;;;;;;;27.70;9.05;;;;;;;;;;5135157;27;20037;-72
2021/07/28 10:54:50;;;;;;;23.98;8.68;;;40.40;55.60;;;;;;5135161;27;20019;-72
2021/07/28 10:57:35;;;;;;;30.27;8.90;;;41.20;53.70;;;;;;5119358;27;20433;-72
2021/07/28 11:00:09;;;;;;;18.83;7.85;;;41.70;54.20;;;;;;5134953;27;20031;-72
2021/07/28 11:02:56;;;;;;;25.17;8.80;;;42.00;52.10;;;;;;5133875;27;20470;-73
2021/07/28 11:05:23;;;;;;;22.83;8.32;;;42.70;52.60;;;;;;5116539;27;20031;-73
2021/07/28 11:08:02;;;;;;;31.63;8.18;;;43.20;51.80;;;;;;5135185;27;20098;-72
2021/07/28 11:10:38;;;;;;;24.55;8.70;;;43.30;50.20;;;;;;5116253;27;20381;-72
2021/07/28 11:13:12;;;;;;;26.08;8.57;;;43.40;51.60;;;;;;5134383;27;20023;-73
2021/07/28 11:15:40;;;;;;;20.52;8.27;;;43.30;50.30;;;;;;5134906;27;20088;-72
2021/07/28 11:18:06;;;;;;;22.58;7.70;;;;;;;;;;5116507;27;20436;-72
2021/07/28 11:20:37;;;;;;;16.42;7.35;;;43.80;46.80;;;;;;5134567;27;20078;-71
2021/07/28 11:23:23;;;;;;;17.88;8.60;;;;;;;;;;5133710;27;20034;-72
2021/07/28 11:25:49;;;;;;;23.83;8.65;;;;;;;;;;5115684;27;20106;-72
2021/07/28 11:28:22;;;;;;;18.45;8.25;;;;;;;;;;5134646;27;20106;-72
2021/07/28 11:31:02;;;;;;;22.73;8.25;;;;;;;;;;5115890;27;20034;-72
2021/07/28 11:33:29;;;;;;;23.58;9.10;;;;;;;;;;5134513;27;20034;-72
2021/07/28 11:35:56;;;;;;;19.15;7.15;;;;;;;;;;5115948;27;20431;-71
2021/07/28 11:38:32;;;;;;;20.95;8.00;;;;;;;;;;5131964;27;20050;-71
2021/07/28 11:41:00;;;;;;;15.43;7.70;;;;;;;;;;5133939;27;20038;-70
2021/07/28 11:43:33;;;;;;;17.42;8.18;;;;;;;;;;5134231;27;20034;-69
2021/07/28 11:46:00;;;;;;;15.85;7.50;;;;;;;;;;5133893;27;20026;-70
2021/07/28 11:48:27;;;;;;;20.23;8.02;;;;;;;;;;5081986;28;20075;-69
2021/07/28 11:50:54;;;;;;;18.60;7.30;;;;;;;;;;5072560;28;20048;-71
2021/07/28 11:53:27;;;;;;;16.20;7.82;;;;;;;;;;5073053;28;20071;-71
2021/07/28 11:55:54;;;;;;;15.48;7.60;;;;;;;;;;5072813;28;20048;-72
2021/07/28 11:58:20;;;;;;;12.68;6.18;;;;;;;;;;5072783;28;20453;-73
2021/07/28 12:00:48;;;;;;;16.13;6.30;;;;;;;;;;5072830;28;20029;-72
2021/07/28 12:03:24;;;;;;;17.55;5.88;;;;;;;;;;5072621;28;20017;-72
2021/07/28 12:05:58;;;;;;;12.95;5.90;;;;;;;;;;5072887;28;20107;-69
2021/07/28 12:08:34;;;;;;;20.67;6.70;;;;;;;;;;5072779;28;20167;-73
2021/07/28 12:11:01;;;;;;;21.00;6.18;;;;;;;;;;5054778;28;20089;-69
2021/07/28 12:13:38;;;;;;;14.80;6.40;;;;;;;;;;5056076;28;20020;-71
2021/07/28 12:16:05;;;;;;;19.48;6.03;;;;;;;;;;5052691;28;20017;-74
2021/07/28 12:18:52;;;;;;;19.88;6.40;;;;;;;;;;5052650;28;20032;-71
2021/07/28 12:21:18;;;;;;;14.43;5.90;;;;;;;;;;5052625;28;20504;-71
2021/07/28 12:23:57;;;;;;;11.63;5.45;;;47.90;38.00;;;;;;5052552;28;20105;-70
2021/07/28 12:26:46;;;;;;;16.45;5.70;;;48.10;37.80;;;;;;5052653;28;20029;-72
2021/07/28 12:29:30;;;;;;;12.30;6.15;;;48.20;37.90;;;;;;5052550;28;20033;-72
2021/07/28 12:31:56;;;;;;;17.25;6.07;;;48.20;37.80;;;;;;5034674;28;20064;-72
2021/07/28 12:34:22;;;;;;;15.85;5.50;;;48.50;37.30;;;;;;5055953;28;20489;-71
2021/07/28 12:36:48;;;;;;;12.10;5.88;;;48.80;37.70;;;;;;5056385;28;20032;-70
2021/07/28 12:39:15;;;;;;;16.77;5.60;;;48.90;38.50;;;;;;5056314;28;20025;-70
2021/07/28 12:41:40;;;;;;;13.57;6.03;;;48.90;37.00;;;;;;5056199;28;20033;-70
2021/07/28 12:44:06;;;;;;;21.60;6.72;;;49.50;36.70;;;;;;5056084;28;20359;-71
2021/07/28 12:46:32;;;;;;;18.20;6.18;;;49.00;39.70;;;;;;5038162;28;20036;-72
2021/07/28 12:48:58;;;;;;;19.02;6.88;;;49.80;39.70;;;;;;5056186;28;20057;-70
2021/07/28 12:51:24;;;;;;;18.73;6.00;;;50.50;38.30;;;;;;5055949;28;20029;-71
2021/07/28 12:53:50;;;;;;;12.20;5.85;;;51.00;36.80;;;;;;5037953;28;20382;-69
2021/07/28 12:56:16;;;;;;;21.48;6.10;;;51.30;37.10;;;;;;5037889;28;20037;-71
2021/07/28 12:58:41;;;;;;;20.15;7.18;;;51.40;38.40;;;;;;5055775;28;20495;-70
2021/07/28 13:01:07;;;;;;;21.38;6.20;;;51.80;37.80;;;;;;5068207;28;20380;-69
2021/07/28 13:03:37;;;;;;;19.90;6.88;;;52.10;38.80;;;;;;5074099;28;20085;-72
2021/07/28 13:06:09;;;;;;;13.85;7.13;;;52.00;39.50;;;;;;5075662;28;20029;-71
2021/07/28 13:08:35;;;;;;;20.38;6.45;;;51.80;38.00;;;;;;5075727;28;20032;-69
2021/07/28 13:11:01;;;;;;;16.73;6.55;;;52.20;36.10;;;;;;5075332;28;20071;-71
2021/07/28 13:13:27;;;;;;;22.00;10.52;;;52.60;35.80;;;;;;5074432;28;20052;-70
2021/07/28 13:15:55;;;;;;;25.63;6.40;;;52.60;37.10;;;;;;5075090;28;20028;-70
2021/07/28 13:18:20;;;;;;;22.52;8.30;;;52.80;36.80;;;;;;5074149;28;20063;-71
2021/07/28 13:20:46;;;;;;;20.90;8.88;;;52.90;36.30;;;;;;5075381;28;20063;-72
2021/07/28 13:23:14;;;;;;;18.35;7.07;;;53.10;35.40;;;;;;5075348;28;20032;-71
2021/07/28 13:25:41;;;;;;;16.58;6.90;;;52.70;36.10;;;;;;5075097;28;20029;-72
2021/07/28 13:28:07;;;;;;;16.23;6.30;;;52.80;35.60;;;;;;5075402;28;20025;-69
2021/07/28 13:30:33;;;;;;;19.25;7.30;;;52.70;35.20;;;;;;5075473;28;20556;-70
2021/07/28 13:33:01;;;;;;;11.90;5.68;;;52.60;36.20;;;;;;5075469;28;20104;-71
2021/07/28 13:35:26;;;;;;;13.98;6.20;;;52.80;35.20;;;;;;5075431;28;20024;-71
2021/07/28 13:37:53;;;;;;;10.32;5.63;;;53.20;33.70;;;;;;5074108;28;20097;-71
2021/07/28 13:40:19;;;;;;;15.38;6.13;;;53.10;33.80;;;;;;5074289;28;20047;-70
2021/07/28 13:42:49;;;;;;;17.50;6.22;;;52.80;34.50;;;;;;5073744;28;20055;-70
2021/07/28 13:45:14;;;;;;;;;;;52.90;35.10;;;;;;5075137;28;20020;-70
2021/07/28 13:47:46;;;;;;;17.83;8.05;;;52.90;35.80;;;;;;5075178;28;19916;-70
2021/07/28 13:50:14;;;;;;;20.33;7.65;;;53.40;35.00;;;;;;5073698;28;20389;-70
2021/07/28 13:52:44;;;;;;;15.88;6.93;;;53.60;35.50;;;;;;5074938;28;20047;-70
2021/07/28 13:55:10;;;;;;;12.07;5.95;;;53.50;35.30;;;;;;5073595;28;20074;-70
2021/07/28 13:57:36;;;;;;;12.57;6.15;;;53.50;35.60;;;;;;5074882;28;20028;-72